createdAt,value
2023-02-08T00:02:39.605Z,16.80
2023-02-08T00:08:01.358Z,17.23
2023-02-08T00:13:23.386Z,16.13
2023-02-08T00:18:45.070Z,15.60
2023-02-08T00:24:06.945Z,17.27
2023-02-08T00:29:28.664Z,15.03
2023-02-08T00:34:50.454Z,15.10
2023-02-08T00:40:12.693Z,14.37
2023-02-08T00:45:34.380Z,15.77
2023-02-08T00:50:59.046Z,16.80
2023-02-08T00:56:20.730Z,16.67
2023-02-08T01:01:42.666Z,15.37
2023-02-08T01:07:05.370Z,15.10
2023-02-08T01:12:27.078Z,14.57
2023-02-08T01:17:54.125Z,18.07
2023-02-08T01:23:15.835Z,14.70
2023-02-08T01:28:38.172Z,17.37
2023-02-08T01:34:00.461Z,14.27
2023-02-08T01:39:22.168Z,12.67
2023-02-08T01:45:11.746Z,18.60
2023-02-08T01:50:42.019Z,16.00
2023-02-08T01:56:08.342Z,15.07
2023-02-08T02:01:31.845Z,15.90
2023-02-08T02:06:57.588Z,15.27
2023-02-08T02:12:21.107Z,18.37
2023-02-08T02:17:43.025Z,17.03
2023-02-08T02:23:23.141Z,16.23
2023-02-08T02:29:03.779Z,17.33
2023-02-08T02:34:34.534Z,14.07
2023-02-08T02:40:03.170Z,17.77
2023-02-08T02:45:32.498Z,16.83
2023-02-08T02:51:17.032Z,14.90
2023-02-08T02:56:46.031Z,12.17
2023-02-08T03:02:08.850Z,16.33
2023-02-08T03:07:56.351Z,17.50
2023-02-08T03:13:47.639Z,18.17
2023-02-08T03:19:27.545Z,14.93
2023-02-08T03:24:54.814Z,18.10
2023-02-08T03:30:34.157Z,15.80
2023-02-08T03:36:06.464Z,16.73
2023-02-08T03:41:38.794Z,17.43
2023-02-08T03:47:15.335Z,16.87
2023-02-08T03:52:37.652Z,15.30
2023-02-08T03:58:06.652Z,15.17
2023-02-08T04:03:30.619Z,18.07
2023-02-08T04:08:52.871Z,14.00
2023-02-08T04:14:14.641Z,14.37
2023-02-08T04:19:36.460Z,17.00
2023-02-08T04:24:58.183Z,17.47
2023-02-08T04:30:19.931Z,15.00
2023-02-08T04:35:42.439Z,14.43
2023-02-08T04:41:04.340Z,19.90
2023-02-08T04:46:26.167Z,15.97
2023-02-08T04:51:47.947Z,17.60
2023-02-08T04:57:14.035Z,16.10
2023-02-08T05:02:35.758Z,18.30
2023-02-08T05:07:57.476Z,17.33
2023-02-08T05:13:19.178Z,15.83
2023-02-08T05:18:42.151Z,17.53
2023-02-08T05:24:03.946Z,18.67
2023-02-08T05:29:25.859Z,18.80
2023-02-08T05:34:47.850Z,17.33
2023-02-08T05:40:10.424Z,16.00
2023-02-08T05:45:32.222Z,16.80
2023-02-08T05:50:54.336Z,20.85
2023-02-08T05:56:16.068Z,20.33
2023-02-08T06:01:37.793Z,21.10
2023-02-08T06:06:59.501Z,16.07
2023-02-08T06:12:21.188Z,15.30
2023-02-08T06:17:42.909Z,18.07
2023-02-08T06:23:04.730Z,20.00
2023-02-08T06:28:26.626Z,16.40
2023-02-08T06:33:48.369Z,16.13
2023-02-08T06:39:10.104Z,17.93
2023-02-08T06:44:31.822Z,17.20
2023-02-08T06:49:54.044Z,20.83
2023-02-08T06:55:15.796Z,17.57
2023-02-08T07:00:39.182Z,19.43
2023-02-08T07:06:05.727Z,18.83
2023-02-08T07:11:27.667Z,19.77
2023-02-08T07:16:49.415Z,25.90
2023-02-08T07:22:11.195Z,19.83
2023-02-08T07:27:33.340Z,19.70
2023-02-08T07:32:55.235Z,18.17
2023-02-08T07:38:20.624Z,18.43
2023-02-08T07:43:43.210Z,24.97
2023-02-08T07:49:04.992Z,19.50
2023-02-08T07:54:27.229Z,21.23
2023-02-08T07:59:48.991Z,19.70
2023-02-08T08:05:11.380Z,20.03
2023-02-08T08:10:33.124Z,26.23
2023-02-08T08:15:54.895Z,19.37
2023-02-08T08:21:16.797Z,24.30
2023-02-08T08:26:38.590Z,24.70
2023-02-08T08:32:00.384Z,19.43
2023-02-08T08:37:22.131Z,21.43
2023-02-08T08:42:43.917Z,22.70
2023-02-08T08:48:05.984Z,20.67
2023-02-08T08:53:27.875Z,22.80
2023-02-08T08:58:49.683Z,21.10
2023-02-08T09:04:11.890Z,22.63
2023-02-08T09:09:33.918Z,19.57
2023-02-08T09:14:55.623Z,22.03
2023-02-08T09:20:17.946Z,21.63
2023-02-08T09:25:40.113Z,21.90
2023-02-08T09:31:37.673Z,20.63
2023-02-08T09:36:59.458Z,22.43
2023-02-08T09:42:31.650Z,23.27
2023-02-08T09:48:14.488Z,26.27
2023-02-08T09:53:44.044Z,22.80
2023-02-08T09:59:12.860Z,20.70
2023-02-08T10:04:43.410Z,21.87
2023-02-08T10:10:15.358Z,22.27
2023-02-08T10:16:13.143Z,22.93
2023-02-08T10:21:55.814Z,21.17
2023-02-08T10:27:28.911Z,19.13
2023-02-08T10:32:59.453Z,20.83
2023-02-08T10:38:21.128Z,21.90
2023-02-08T10:43:51.729Z,23.73
2023-02-08T10:49:35.023Z,19.03
2023-02-08T10:54:58.560Z,20.73
2023-02-08T11:00:26.999Z,22.60
2023-02-08T11:05:49.627Z,22.87
2023-02-08T11:11:11.576Z,22.13
2023-02-08T11:16:34.076Z,17.80
2023-02-08T11:21:57.070Z,18.20
2023-02-08T11:27:29.495Z,19.20
2023-02-08T11:33:19.730Z,17.23
2023-02-08T11:38:42.636Z,15.77
2023-02-08T11:44:07.132Z,18.73
2023-02-08T11:49:40.665Z,17.17
2023-02-08T11:55:38.075Z,17.00
2023-02-08T12:01:18.658Z,19.77
2023-02-08T12:06:54.373Z,13.40
2023-02-08T12:12:42.680Z,12.77
2023-02-08T12:18:16.732Z,14.27
2023-02-08T12:23:49.227Z,15.13
2023-02-08T12:29:45.679Z,17.70
2023-02-08T12:35:57.599Z,12.97
2023-02-08T12:41:23.210Z,14.13
2023-02-08T12:47:06.805Z,14.37
2023-02-08T12:52:37.684Z,15.40
2023-02-08T12:58:25.619Z,11.97
2023-02-08T13:03:57.245Z,11.23
2023-02-08T13:09:35.707Z,10.80
2023-02-08T13:15:30.954Z,11.70
2023-02-08T13:21:05.420Z,12.80
2023-02-08T13:26:33.266Z,8.03
2023-02-08T13:32:30.697Z,11.03
2023-02-08T13:37:59.890Z,9.13
2023-02-08T13:43:35.612Z,10.57
2023-02-08T13:49:00.348Z,11.47
2023-02-08T13:54:23.710Z,12.83
2023-02-08T14:00:21.480Z,10.27
2023-02-08T14:05:57.196Z,11.70
2023-02-08T14:11:37.218Z,10.40
2023-02-08T14:17:04.733Z,9.57
2023-02-08T14:22:33.756Z,11.33
2023-02-08T14:28:02.545Z,11.83
2023-02-08T14:33:32.027Z,8.17
2023-02-08T14:39:23.622Z,11.60
2023-02-08T14:44:48.883Z,9.80
2023-02-08T14:50:20.447Z,11.37
2023-02-08T14:55:52.067Z,12.17
2023-02-08T15:01:18.649Z,15.23
2023-02-08T15:07:07.534Z,13.13
2023-02-08T15:12:32.954Z,14.30
2023-02-08T15:17:55.610Z,11.63
2023-02-08T15:23:23.570Z,11.43
2023-02-08T15:28:45.546Z,16.93
2023-02-08T15:34:11.405Z,12.60
2023-02-08T15:39:41.458Z,11.43
2023-02-08T15:45:04.453Z,13.47
2023-02-08T15:50:27.699Z,13.10
2023-02-08T15:55:53.727Z,17.67
2023-02-08T16:01:20.808Z,10.87
2023-02-08T16:06:53.247Z,12.40
2023-02-08T16:12:21.675Z,17.33
2023-02-08T16:17:45.707Z,18.20
2023-02-08T16:23:31.225Z,24.17
2023-02-08T16:29:19.000Z,22.77
2023-02-08T16:34:41.118Z,20.53
2023-02-08T16:40:06.608Z,20.27
2023-02-08T16:45:28.392Z,19.60
2023-02-08T16:50:50.122Z,21.10
2023-02-08T16:56:11.897Z,20.50
2023-02-08T17:01:34.001Z,25.70
2023-02-08T17:06:55.832Z,28.50
2023-02-08T17:12:22.836Z,22.27
2023-02-08T17:17:44.835Z,22.83
2023-02-08T17:23:07.020Z,23.83
2023-02-08T17:28:28.838Z,22.07
2023-02-08T17:33:50.602Z,28.93
2023-02-08T17:39:13.686Z,28.70
2023-02-08T17:44:35.428Z,26.50
2023-02-08T17:49:57.498Z,23.30
2023-02-08T17:55:19.613Z,26.27
2023-02-08T18:00:41.364Z,25.17
2023-02-08T18:06:05.940Z,24.90
2023-02-08T18:11:27.776Z,28.80
2023-02-08T18:16:49.533Z,28.80
2023-02-08T18:22:11.271Z,22.97
2023-02-08T18:27:33.286Z,27.53
2023-02-08T18:32:55.023Z,27.27
2023-02-08T18:38:16.789Z,28.00
2023-02-08T18:43:39.213Z,29.63
2023-02-08T18:49:00.967Z,29.90
2023-02-08T18:54:23.029Z,28.77
2023-02-08T18:59:44.749Z,24.40
2023-02-08T19:05:06.793Z,34.27
2023-02-08T19:10:28.515Z,27.37
2023-02-08T19:15:51.319Z,28.50
2023-02-08T19:21:15.113Z,27.40
2023-02-08T19:26:39.877Z,25.23
2023-02-08T19:32:01.716Z,27.60
2023-02-08T19:37:23.583Z,29.90
2023-02-08T19:42:45.973Z,29.17
2023-02-08T19:48:08.597Z,27.67
2023-02-08T19:53:30.624Z,26.17
2023-02-08T19:58:52.465Z,24.47
2023-02-08T20:04:14.567Z,26.07
2023-02-08T20:09:37.113Z,25.33
2023-02-08T20:14:58.929Z,28.37
2023-02-08T20:20:21.345Z,30.00
2023-02-08T20:25:43.371Z,26.30
2023-02-08T20:31:15.472Z,25.53
2023-02-08T20:36:40.525Z,28.93
2023-02-08T20:42:02.553Z,30.53
2023-02-08T20:47:24.487Z,27.83
2023-02-08T20:52:46.762Z,31.43
2023-02-08T20:58:08.597Z,31.50
2023-02-08T21:03:30.298Z,28.43
2023-02-08T21:08:52.603Z,30.73
2023-02-08T21:14:20.673Z,29.77
2023-02-08T21:19:42.631Z,26.40
2023-02-08T21:25:04.407Z,28.67
2023-02-08T21:30:26.200Z,30.23
2023-02-08T21:35:48.043Z,30.07
2023-02-08T21:41:21.696Z,27.73
2023-02-08T21:46:43.412Z,32.37
2023-02-08T21:52:23.745Z,30.27
2023-02-08T21:57:45.592Z,27.53
2023-02-08T22:03:07.454Z,24.53
2023-02-08T22:08:29.176Z,22.50
2023-02-08T22:13:50.863Z,26.20
2023-02-08T22:19:12.581Z,31.10
2023-02-08T22:24:35.408Z,25.60
2023-02-08T22:29:57.526Z,24.27
2023-02-08T22:35:19.367Z,30.80
2023-02-08T22:40:42.391Z,28.07
2023-02-08T22:46:04.535Z,28.07
2023-02-08T22:51:26.313Z,27.13
2023-02-08T22:56:48.023Z,29.93
2023-02-08T23:02:09.771Z,31.07
2023-02-08T23:07:31.593Z,26.80
2023-02-08T23:12:53.303Z,30.73
2023-02-08T23:18:15.009Z,30.03
2023-02-08T23:23:36.831Z,27.20
2023-02-08T23:28:58.678Z,26.10
2023-02-08T23:34:20.431Z,26.43
2023-02-08T23:39:42.146Z,22.97
2023-02-08T23:45:04.490Z,25.67
2023-02-08T23:50:26.421Z,23.37
2023-02-08T23:55:48.121Z,27.30
